createdAt,value
2019-01-17T00:00:46.483Z,53.10
2019-01-17T00:03:28.593Z,57.47
2019-01-17T00:05:58.815Z,61.27
2019-01-17T00:08:29.083Z,67.27
2019-01-17T00:11:15.533Z,63.00
2019-01-17T00:13:51.486Z,60.43
2019-01-17T00:16:21.721Z,57.13
2019-01-17T00:19:03.768Z,61.63
2019-01-17T00:21:37.979Z,58.73
2019-01-17T00:24:09.768Z,57.80
2019-01-17T00:26:42.696Z,61.70
2019-01-17T00:29:22.970Z,67.97
2019-01-17T00:31:53.190Z,62.77
2019-01-17T00:34:26.101Z,65.60
2019-01-17T00:37:05.190Z,65.83
2019-01-17T00:39:51.687Z,75.53
2019-01-17T00:42:24.943Z,65.30
2019-01-17T00:45:08.713Z,70.63
2019-01-17T00:47:44.806Z,66.10
2019-01-17T00:50:15.092Z,79.13
2019-01-17T00:52:45.399Z,72.17
2019-01-17T00:55:18.735Z,71.27
2019-01-17T00:58:05.138Z,65.30
2019-01-17T01:00:54.134Z,71.00
2019-01-17T01:03:27.354Z,67.83
2019-01-17T01:05:57.606Z,71.17
2019-01-17T01:08:39.826Z,76.00
2019-01-17T01:11:12.644Z,64.10
2019-01-17T01:13:42.867Z,69.40
2019-01-17T01:16:13.355Z,80.50
2019-01-17T01:18:46.589Z,71.83
2019-01-17T01:21:19.966Z,87.33
2019-01-17T01:24:06.315Z,88.50
2019-01-17T01:26:40.349Z,91.93
2019-01-17T01:29:13.314Z,77.37
2019-01-17T01:31:49.499Z,87.60
2019-01-17T01:34:36.138Z,75.47
2019-01-17T01:37:14.983Z,82.87
2019-01-17T01:39:45.226Z,85.43
2019-01-17T01:42:15.479Z,88.20
2019-01-17T01:45:02.101Z,83.87
2019-01-17T01:47:41.153Z,88.20
2019-01-17T01:50:11.460Z,88.67
2019-01-17T01:52:44.412Z,94.50
2019-01-17T01:55:13.110Z,85.33
2019-01-17T01:57:41.863Z,92.47
2019-01-17T02:00:11.634Z,92.00
2019-01-17T02:02:40.258Z,89.63
2019-01-17T02:05:09.006Z,88.03
2019-01-17T02:07:37.695Z,90.30
2019-01-17T02:10:09.660Z,94.93
2019-01-17T02:12:38.337Z,94.07
2019-01-17T02:15:07.011Z,98.30
2019-01-17T02:17:36.547Z,85.83
2019-01-17T02:20:08.251Z,102.10
2019-01-17T02:22:36.891Z,97.23
2019-01-17T02:25:07.550Z,126.03
2019-01-17T02:27:38.238Z,136.30
2019-01-17T02:30:10.347Z,135.40
2019-01-17T02:32:39.078Z,97.77
2019-01-17T02:35:08.056Z,110.20
2019-01-17T02:37:36.707Z,98.83
2019-01-17T02:40:08.584Z,96.97
2019-01-17T02:42:38.844Z,95.87
2019-01-17T02:45:10.526Z,96.30
2019-01-17T02:47:39.153Z,98.50
2019-01-17T02:50:09.638Z,103.60
2019-01-17T02:52:40.063Z,108.13
2019-01-17T02:55:10.577Z,105.30
2019-01-17T02:57:39.328Z,113.10
2019-01-17T03:00:16.032Z,106.93
2019-01-17T03:02:46.308Z,95.83
2019-01-17T03:05:14.998Z,104.47
2019-01-17T03:07:43.739Z,106.03
2019-01-17T03:10:15.317Z,93.07
2019-01-17T03:12:43.959Z,107.17
2019-01-17T03:15:12.613Z,102.53
2019-01-17T03:17:41.317Z,105.70
2019-01-17T03:20:11.909Z,107.13
2019-01-17T03:22:40.601Z,104.07
2019-01-17T03:25:10.808Z,111.23
2019-01-17T03:27:49.286Z,127.10
2019-01-17T03:30:18.238Z,121.57
2019-01-17T03:32:46.977Z,134.93
2019-01-17T03:35:17.202Z,128.47
2019-01-17T03:37:45.954Z,113.00
2019-01-17T03:40:15.692Z,115.50
2019-01-17T03:42:44.395Z,111.07
2019-01-17T03:45:14.029Z,107.30
2019-01-17T03:47:42.693Z,118.90
2019-01-17T03:50:13.240Z,103.33
2019-01-17T03:52:41.970Z,109.07
2019-01-17T03:55:13.456Z,116.17
2019-01-17T03:57:42.125Z,112.00
2019-01-17T04:00:13.989Z,99.77
2019-01-17T04:02:42.662Z,96.90
2019-01-17T04:05:11.330Z,102.40
2019-01-17T04:07:40.046Z,103.23
2019-01-17T04:10:12.016Z,107.10
2019-01-17T04:12:40.702Z,117.87
2019-01-17T04:15:10.735Z,109.13
2019-01-17T04:17:39.400Z,112.57
2019-01-17T04:20:10.941Z,117.27
2019-01-17T04:22:39.690Z,108.67
2019-01-17T04:25:09.522Z,102.57
2019-01-17T04:27:38.246Z,107.87
2019-01-17T04:30:15.857Z,126.27
2019-01-17T04:32:44.581Z,124.33
2019-01-17T04:35:16.074Z,136.70
2019-01-17T04:37:44.784Z,119.13
2019-01-17T04:40:15.539Z,114.77
2019-01-17T04:42:45.654Z,127.00
2019-01-17T04:45:14.669Z,134.37
2019-01-17T04:47:43.338Z,121.80
2019-01-17T04:50:13.990Z,134.05
2019-01-17T04:52:42.708Z,121.93
2019-01-17T04:55:12.838Z,127.23
2019-01-17T04:57:41.574Z,130.97
2019-01-17T05:00:13.445Z,121.13
2019-01-17T05:02:42.129Z,128.40
2019-01-17T05:05:10.870Z,127.83
2019-01-17T05:07:39.773Z,125.70
2019-01-17T05:10:10.971Z,127.27
2019-01-17T05:12:39.702Z,131.03
2019-01-17T05:15:09.092Z,149.07
2019-01-17T05:17:41.417Z,141.77
2019-01-17T05:20:15.006Z,180.93
2019-01-17T05:22:43.674Z,151.60
2019-01-17T05:25:13.026Z,138.73
2019-01-17T05:27:41.823Z,147.43
2019-01-17T05:30:13.208Z,150.03
2019-01-17T05:32:41.932Z,152.27
2019-01-17T05:35:10.864Z,153.63
2019-01-17T05:37:39.540Z,142.07
2019-01-17T05:40:13.784Z,125.07
2019-01-17T05:42:42.461Z,122.27
2019-01-17T05:45:12.806Z,137.23
2019-01-17T05:47:41.581Z,139.27
2019-01-17T05:50:12.902Z,129.03
2019-01-17T05:52:41.579Z,160.52
2019-01-17T05:55:10.271Z,133.73
2019-01-17T05:57:39.030Z,131.87
2019-01-17T06:00:13.584Z,127.57
2019-01-17T06:02:42.289Z,116.33
2019-01-17T06:05:11.181Z,113.07
2019-01-17T06:07:39.891Z,113.90
2019-01-17T06:10:10.810Z,134.87
2019-01-17T06:12:39.562Z,143.30
2019-01-17T06:15:11.129Z,130.63
2019-01-17T06:17:39.764Z,121.83
2019-01-17T06:20:12.044Z,126.97
2019-01-17T06:22:40.931Z,131.77
2019-01-17T06:25:09.685Z,129.80
2019-01-17T06:27:38.404Z,101.90
2019-01-17T06:30:10.224Z,91.40
2019-01-17T06:32:38.926Z,109.13
2019-01-17T06:35:08.942Z,122.33
2019-01-17T06:37:37.634Z,113.93
2019-01-17T06:40:14.328Z,120.63
2019-01-17T06:42:43.017Z,118.30
2019-01-17T06:45:11.665Z,129.17
2019-01-17T06:47:40.541Z,130.33
2019-01-17T06:50:10.680Z,113.77
2019-01-17T06:52:39.334Z,130.10
2019-01-17T06:55:09.596Z,114.40
2019-01-17T06:57:40.094Z,111.83
2019-01-17T07:00:16.482Z,120.40
2019-01-17T07:02:45.144Z,143.82
2019-01-17T07:05:16.279Z,112.70
2019-01-17T07:07:44.953Z,115.07
2019-01-17T07:10:16.300Z,120.77
2019-01-17T07:12:46.222Z,118.27
2019-01-17T07:15:15.000Z,117.17
2019-01-17T07:17:43.759Z,126.43
2019-01-17T07:20:16.326Z,127.67
2019-01-17T07:22:47.991Z,129.00
2019-01-17T07:25:17.795Z,183.67
2019-01-17T07:27:46.576Z,181.07
2019-01-17T07:30:21.415Z,163.30
2019-01-17T07:32:50.189Z,165.60
2019-01-17T07:35:18.872Z,169.17
2019-01-17T07:37:47.642Z,182.30
2019-01-17T07:40:16.950Z,162.67
2019-01-17T07:42:45.625Z,176.43
2019-01-17T07:45:17.244Z,176.73
2019-01-17T07:48:22.040Z,159.47
2019-01-17T07:50:52.477Z,154.87
2019-01-17T07:53:21.160Z,154.07
2019-01-17T07:55:52.813Z,152.20
2019-01-17T07:58:23.182Z,143.97
2019-01-17T08:00:51.902Z,124.73
2019-01-17T08:03:20.558Z,135.47
2019-01-17T08:05:49.650Z,137.27
2019-01-17T08:08:18.318Z,147.43
2019-01-17T08:10:46.945Z,142.93
2019-01-17T08:13:15.841Z,135.77
2019-01-17T08:15:44.532Z,133.37
2019-01-17T08:18:18.662Z,131.03
2019-01-17T08:20:43.526Z,128.20
2019-01-17T08:23:12.210Z,129.03
2019-01-17T08:25:40.907Z,124.80
2019-01-17T08:28:09.685Z,122.80
2019-01-17T08:30:38.384Z,118.77
2019-01-17T08:33:07.101Z,122.87
2019-01-17T08:35:35.884Z,122.47
2019-01-17T08:38:07.408Z,117.73
2019-01-17T08:40:36.079Z,114.77
2019-01-17T08:43:04.934Z,105.93
2019-01-17T08:45:33.656Z,92.07
2019-01-17T08:48:02.524Z,102.63
2019-01-17T08:50:31.283Z,117.13
2019-01-17T08:52:59.971Z,106.60
2019-01-17T08:55:28.664Z,113.00
2019-01-17T08:57:57.388Z,110.90
2019-01-17T09:00:26.667Z,103.73
2019-01-17T09:02:55.393Z,75.33
2019-01-17T09:05:24.106Z,74.20
2019-01-17T09:07:52.730Z,72.20
2019-01-17T09:10:26.379Z,73.20
2019-01-17T09:12:57.371Z,80.83
2019-01-17T09:15:28.880Z,72.43
2019-01-17T09:17:57.535Z,76.13
2019-01-17T09:20:26.239Z,64.87
2019-01-17T09:22:54.916Z,69.20
2019-01-17T09:25:25.157Z,61.47
2019-01-17T09:27:53.919Z,64.63
2019-01-17T09:30:22.759Z,63.50
2019-01-17T09:32:51.383Z,65.57
2019-01-17T09:35:20.108Z,64.47
2019-01-17T09:37:48.812Z,61.53
2019-01-17T09:40:21.717Z,60.60
2019-01-17T09:42:51.735Z,68.00
2019-01-17T09:45:20.393Z,65.67
2019-01-17T09:47:49.113Z,66.13
2019-01-17T09:50:22.765Z,62.27
2019-01-17T09:52:51.430Z,63.57
2019-01-17T09:55:20.080Z,60.80
2019-01-17T09:57:48.916Z,62.67
2019-01-17T10:00:20.061Z,68.37
2019-01-17T10:02:48.746Z,66.17
2019-01-17T10:05:20.630Z,62.47
2019-01-17T10:07:49.327Z,68.07
2019-01-17T10:10:19.976Z,65.23
2019-01-17T10:12:48.719Z,66.37
2019-01-17T10:15:27.507Z,62.07
2019-01-17T10:18:17.139Z,53.50
2019-01-17T10:21:08.193Z,60.47
2019-01-17T10:23:46.115Z,57.10
2019-01-17T10:26:35.778Z,70.92
2019-01-17T10:29:25.554Z,65.87
2019-01-17T10:32:00.072Z,64.47
2019-01-17T10:34:57.492Z,69.23
2019-01-17T10:37:45.709Z,66.20
2019-01-17T10:40:32.294Z,62.73
2019-01-17T10:43:38.281Z,60.83
2019-01-17T10:46:43.194Z,58.87
2019-01-17T10:49:17.952Z,62.00
2019-01-17T10:51:52.965Z,61.47
2019-01-17T10:54:27.409Z,65.20
2019-01-17T10:57:07.944Z,63.50
2019-01-17T10:59:42.659Z,60.20
2019-01-17T11:02:32.300Z,52.23
2019-01-17T11:05:07.073Z,58.33
2019-01-17T11:07:47.683Z,62.50
2019-01-17T11:10:40.516Z,67.87
2019-01-17T11:13:34.618Z,62.50
2019-01-17T11:16:13.363Z,68.37
2019-01-17T11:19:01.222Z,73.28
2019-01-17T11:21:44.752Z,68.93
2019-01-17T11:24:21.135Z,65.70
2019-01-17T11:27:32.602Z,63.67
2019-01-17T11:30:30.170Z,70.97
2019-01-17T11:33:02.182Z,57.53
2019-01-17T11:35:50.646Z,56.97
2019-01-17T11:38:34.124Z,51.17
2019-01-17T11:41:26.827Z,49.10
2019-01-17T11:44:01.368Z,55.10
2019-01-17T11:46:41.845Z,53.80
2019-01-17T11:49:22.448Z,53.73
2019-01-17T11:52:18.512Z,55.70
2019-01-17T11:55:04.826Z,51.00
2019-01-17T11:57:48.603Z,50.60
2019-01-17T12:00:30.808Z,46.67
2019-01-17T12:03:08.447Z,45.10
2019-01-17T12:05:37.144Z,45.37
2019-01-17T12:08:05.838Z,48.73
2019-01-17T12:10:34.582Z,51.50
2019-01-17T12:13:04.975Z,50.13
2019-01-17T12:15:33.754Z,52.37
2019-01-17T12:18:02.509Z,53.03
2019-01-17T12:20:31.149Z,48.10
2019-01-17T12:22:59.989Z,52.03
2019-01-17T12:25:28.745Z,53.37
2019-01-17T12:27:57.437Z,53.07
2019-01-17T12:30:26.328Z,55.43
2019-01-17T12:32:55.014Z,62.98
2019-01-17T12:35:25.231Z,64.67
2019-01-17T12:37:53.877Z,53.97
2019-01-17T12:40:24.182Z,54.83
2019-01-17T12:42:52.947Z,48.53
2019-01-17T12:45:23.329Z,48.97
2019-01-17T12:47:52.183Z,46.93
2019-01-17T12:50:20.845Z,51.20
2019-01-17T12:52:49.499Z,42.10
2019-01-17T12:55:19.899Z,41.60
2019-01-17T12:57:48.794Z,40.70
2019-01-17T13:00:18.835Z,38.03
2019-01-17T13:02:47.567Z,36.90
2019-01-17T13:05:16.292Z,38.50
2019-01-17T13:07:44.957Z,43.13
2019-01-17T13:10:22.708Z,35.67
2019-01-17T13:12:51.395Z,40.27
2019-01-17T13:15:20.191Z,39.30
2019-01-17T13:17:50.659Z,35.43
2019-01-17T13:20:19.304Z,39.45
2019-01-17T13:22:48.112Z,36.97
2019-01-17T13:25:19.033Z,33.00
2019-01-17T13:27:47.668Z,33.87
2019-01-17T13:30:19.432Z,35.10
2019-01-17T13:32:49.650Z,36.00
2019-01-17T13:35:18.447Z,34.50
2019-01-17T13:37:47.160Z,36.60
2019-01-17T13:40:20.728Z,37.57
2019-01-17T13:42:49.354Z,38.57
2019-01-17T13:45:19.554Z,41.63
2019-01-17T13:47:48.240Z,45.07
2019-01-17T13:50:18.627Z,46.93
2019-01-17T13:52:47.309Z,36.83
2019-01-17T13:55:17.293Z,40.00
2019-01-17T13:57:45.977Z,41.40
2019-01-17T14:00:17.555Z,45.13
2019-01-17T14:02:49.242Z,45.43
2019-01-17T14:05:20.401Z,44.13
2019-01-17T14:07:49.924Z,48.43
2019-01-17T14:10:20.275Z,53.87
2019-01-17T14:12:49.064Z,59.50
2019-01-17T14:15:29.130Z,54.27
2019-01-17T14:17:59.645Z,58.43
2019-01-17T14:20:28.367Z,59.57
2019-01-17T14:22:57.117Z,59.97
2019-01-17T14:25:25.750Z,52.37
2019-01-17T14:27:54.443Z,51.03
2019-01-17T14:30:27.324Z,50.43
2019-01-17T14:32:57.753Z,46.63
2019-01-17T14:41:26.688Z,50.57
2019-01-17T14:43:55.489Z,43.20
2019-01-17T14:46:24.088Z,43.90
2019-01-17T14:48:52.821Z,39.33
2019-01-17T14:51:21.474Z,40.33
2019-01-17T14:53:50.246Z,44.83
2019-01-17T14:56:18.936Z,42.10
2019-01-17T14:58:47.828Z,43.73
2019-01-17T15:01:16.675Z,43.37
2019-01-17T15:03:47.019Z,42.87
2019-01-17T15:06:15.684Z,46.40
2019-01-17T15:08:44.373Z,41.00
2019-01-17T15:11:27.657Z,36.30
2019-01-17T15:19:34.854Z,37.40
2019-01-17T15:19:46.188Z,37.03
2019-01-17T15:22:14.854Z,39.33
2019-01-17T15:24:43.602Z,36.07
2019-01-17T15:27:16.490Z,41.13
2019-01-17T15:29:45.191Z,38.53
2019-01-17T15:32:16.476Z,39.60
2019-01-17T15:34:45.170Z,39.53
2019-01-17T15:37:13.899Z,38.93
2019-01-17T15:39:42.662Z,47.27
2019-01-17T15:42:11.313Z,50.17
2019-01-17T15:44:40.104Z,44.47
2019-01-17T15:47:13.166Z,45.33
2019-01-17T15:49:41.089Z,47.17
2019-01-17T15:52:09.743Z,47.30
2019-01-17T15:54:42.436Z,51.73
2019-01-17T15:57:14.120Z,57.03
2019-01-17T15:59:44.399Z,51.37
2019-01-17T16:02:14.401Z,53.47
2019-01-17T16:04:43.101Z,49.23
2019-01-17T16:07:12.151Z,51.07
2019-01-17T16:09:49.430Z,45.73
2019-01-17T16:12:18.191Z,35.87
2019-01-17T16:15:22.658Z,35.57
2019-01-17T16:17:42.472Z,35.87
2019-01-17T16:20:42.432Z,37.10
2019-01-17T16:23:14.458Z,38.87
2019-01-17T16:25:44.836Z,37.70
2019-01-17T16:31:29.089Z,36.95
2019-01-17T16:33:59.533Z,37.13
2019-01-17T16:36:28.501Z,35.10
2019-01-17T16:38:58.820Z,30.37
2019-01-17T16:41:27.501Z,30.90
2019-01-17T16:43:58.676Z,26.40
2019-01-17T16:46:27.338Z,50.97
2019-01-17T16:48:56.027Z,24.70
2019-01-17T16:51:24.687Z,31.23
2019-01-17T16:53:53.417Z,30.10
2019-01-17T16:56:25.009Z,31.80
2019-01-17T16:59:00.916Z,31.37
2019-01-17T17:01:29.826Z,35.77
2019-01-17T17:03:59.098Z,41.00
2019-01-17T17:06:27.829Z,78.43
2019-01-17T17:08:56.982Z,31.03
2019-01-17T17:11:26.153Z,57.30
2019-01-17T17:14:05.065Z,29.00
2019-01-17T17:16:33.926Z,34.47
2019-01-17T17:19:03.436Z,25.47
2019-01-17T17:21:32.756Z,22.90
2019-01-17T17:24:03.718Z,27.57
2019-01-17T17:26:32.616Z,23.83
2019-01-17T17:29:01.452Z,27.23
2019-01-17T17:31:30.204Z,22.90
2019-01-17T17:33:58.865Z,23.63
2019-01-17T17:36:27.681Z,26.77
2019-01-17T17:38:59.600Z,22.30
2019-01-17T17:41:28.311Z,25.13
2019-01-17T17:43:57.282Z,21.67
2019-01-17T17:46:26.035Z,28.07
2019-01-17T17:48:54.790Z,30.00
2019-01-17T17:51:23.523Z,27.40
2019-01-17T17:53:52.795Z,35.00
2019-01-17T17:56:21.549Z,28.07
2019-01-17T17:58:54.957Z,31.57
2019-01-17T18:01:51.247Z,39.17
2019-01-17T18:04:27.436Z,39.30
2019-01-17T18:06:53.688Z,41.97
2019-01-17T18:09:30.015Z,46.67
2019-01-17T18:11:58.762Z,43.43
2019-01-17T18:14:31.119Z,55.33
2019-01-17T18:17:03.061Z,55.50
2019-01-17T18:19:40.689Z,51.60
2019-01-17T18:22:10.649Z,66.03
2019-01-17T18:24:39.352Z,51.83
2019-01-17T18:27:08.955Z,53.60
2019-01-17T18:29:39.376Z,44.23
2019-01-17T18:32:09.875Z,49.93
2019-01-17T19:35:51.134Z,24.40
2019-01-17T19:38:19.817Z,26.47
2019-01-17T19:40:50.051Z,16.03
2019-01-17T19:43:18.773Z,22.17
2019-01-17T19:45:47.440Z,19.57
2019-01-17T19:48:16.118Z,18.07
2019-01-17T19:50:45.024Z,20.97
2019-01-17T19:53:13.670Z,20.23
2019-01-17T19:55:42.332Z,22.60
2019-01-17T19:58:13.338Z,20.27
2019-01-17T20:00:41.994Z,20.33
2019-01-17T20:03:31.103Z,20.33
2019-01-17T20:05:59.935Z,19.93
2019-01-17T20:08:30.451Z,19.50
2019-01-17T20:11:00.753Z,22.07
2019-01-17T20:13:29.967Z,19.03
2019-01-17T20:16:02.292Z,18.63
2019-01-17T20:18:32.658Z,17.23
2019-01-17T20:21:21.371Z,18.30
2019-01-17T20:24:01.528Z,16.27
2019-01-17T20:26:34.719Z,17.63
2019-01-17T20:29:20.236Z,21.30
2019-01-17T20:31:55.341Z,18.97
2019-01-17T20:34:24.856Z,22.80
2019-01-17T20:36:56.577Z,17.80
2019-01-17T20:39:27.572Z,19.50
2019-01-17T20:41:58.495Z,18.97
2019-01-17T20:44:29.955Z,19.67
2019-01-17T20:47:00.672Z,21.10
2019-01-17T20:49:29.083Z,17.43
2019-01-17T20:51:57.794Z,21.50
2019-01-17T20:54:26.534Z,21.13
2019-01-17T20:56:55.850Z,18.87
2019-01-17T20:59:24.528Z,23.15
2019-01-17T21:02:05.388Z,19.17
2019-01-17T21:04:35.633Z,21.63
2019-01-17T21:10:16.016Z,19.10
2019-01-17T21:12:44.864Z,20.17
2019-01-17T21:15:14.460Z,18.57
2019-01-17T21:17:43.293Z,28.53
2019-01-17T21:20:12.928Z,27.27
2019-01-17T21:22:41.607Z,26.87
2019-01-17T21:25:13.133Z,27.70
2019-01-17T21:27:42.338Z,69.93
2019-01-17T21:30:14.043Z,32.23
2019-01-17T21:32:42.673Z,34.57
2019-01-17T21:35:12.073Z,23.53
2019-01-17T21:37:43.228Z,23.10
2019-01-17T21:40:14.813Z,25.73
2019-01-17T21:42:45.101Z,24.83
2019-01-17T21:45:18.270Z,24.73
2019-01-17T21:47:49.544Z,25.50
2019-01-17T21:50:29.708Z,28.03
2019-01-17T21:52:58.477Z,30.33
2019-01-17T21:55:27.226Z,28.10
2019-01-17T21:57:55.950Z,23.90
2019-01-17T22:00:29.020Z,24.27
2019-01-17T22:02:57.678Z,19.70
2019-01-17T22:05:26.453Z,22.20
2019-01-17T22:07:55.129Z,22.53
2019-01-17T22:10:26.774Z,30.90
2019-01-17T22:12:59.279Z,27.37
2019-01-17T22:15:31.129Z,19.77
2019-01-17T22:17:59.789Z,22.60
2019-01-17T22:20:28.563Z,26.40
2019-01-17T22:22:58.773Z,24.00
2019-01-17T22:25:27.462Z,22.70
2019-01-17T22:27:56.225Z,23.73
2019-01-17T22:30:27.450Z,26.33
2019-01-17T22:32:58.662Z,28.93
2019-01-17T22:35:27.348Z,28.37
2019-01-17T22:38:01.900Z,27.33
2019-01-17T22:40:30.558Z,33.23
2019-01-17T22:43:02.176Z,26.40
2019-01-17T22:45:32.456Z,27.67
2019-01-17T22:48:01.132Z,26.20
2019-01-17T22:50:32.788Z,26.13
2019-01-17T22:53:01.560Z,25.70
2019-01-17T22:55:30.331Z,26.10
2019-01-17T22:57:59.005Z,27.80
2019-01-17T23:00:32.404Z,25.97
2019-01-17T23:03:01.105Z,25.27
2019-01-17T23:05:29.816Z,27.23
2019-01-17T23:08:00.088Z,23.20
2019-01-17T23:10:28.732Z,25.40
2019-01-17T23:12:57.751Z,28.33
2019-01-17T23:15:26.519Z,25.37
2019-01-17T23:17:55.296Z,28.70
2019-01-17T23:20:23.935Z,30.17
2019-01-17T23:22:55.711Z,28.37
2019-01-17T23:25:24.168Z,30.07
2019-01-17T23:27:53.167Z,31.50
2019-01-17T23:30:21.872Z,29.70
2019-01-17T23:32:50.536Z,26.10
2019-01-17T23:35:19.241Z,29.57
2019-01-17T23:37:47.995Z,26.37
2019-01-17T23:40:16.638Z,31.30
2019-01-17T23:42:46.844Z,29.57
2019-01-17T23:45:15.549Z,29.33
2019-01-17T23:47:44.223Z,29.87
2019-01-17T23:50:13.226Z,27.80
2019-01-17T23:52:41.945Z,27.17
2019-01-17T23:55:10.601Z,23.67
2019-01-17T23:57:39.260Z,27.03
